East Claridon, Ohio
Current Conditions -  °F | °C
As of 2:45 PM on Thursday 30 Oct 2014 (Local Time) from KCGF Reporting Station
Broken Clouds Broken Clouds  
Wind Chill: 43°   Ceiling: 2400
Heat Index: 48°   Visibility: 10mi
Dew Point: 37°   Wind: 12mph
Humidity: 66%   Direction: 310°NW
Pressure: 30.09"   Gusts: NA
Location:  41.53°N, 81.11°W
Report Text: KCGF 301845Z 31010KT 10SM BKN024 09/03 A3009
Loading
Personal Weather Stations






























Interactive Weather Map
Tropical Storm Tracking
New forecast layout! Learn more

10-Day Weather Forecast

Advertisements
Track Severe Weather on mobile